Time,TemperatureF,DewpointF,PressureIn,WindDirection,WindDirectionDegrees,WindSpeedMPH,WindSpeedGustMPH,Humidity,HourlyPrecipIn,Conditions,Clouds,dailyrainin,SoftwareType,DateUTC
2013-02-01 00:01:00,0.2,-5.4,30.01,North,0,6.0,9.2,77,0.00,,,0.00,WUHU216HW,2013-02-01 06:01:00,
2013-02-01 00:06:00,0.2,-5.4,30.02,WNW,293,8.5,11.0,77,0.00,,,0.00,WUHU216HW,2013-02-01 06:06:00,
2013-02-01 00:11:00,0.0,-5.6,30.02,West,270,6.5,11.0,77,0.00,,,0.00,WUHU216HW,2013-02-01 06:11:00,
2013-02-01 00:16:00,0.0,-5.6,30.02,WNW,293,7.2,11.0,77,0.00,,,0.00,WUHU216HW,2013-02-01 06:16:00,
2013-02-01 00:21:00,0.0,-5.6,30.02,WNW,293,5.4,11.9,77,0.00,,,0.00,WUHU216HW,2013-02-01 06:21:00,
2013-02-01 00:26:00,-0.2,-5.8,30.02,NW,315,6.9,11.9,77,0.00,,,0.00,WUHU216HW,2013-02-01 06:26:00,
2013-02-01 00:31:00,-0.2,-5.8,30.02,WNW,293,8.1,9.8,77,0.00,,,0.00,WUHU216HW,2013-02-01 06:31:00,
2013-02-01 00:36:00,-0.2,-5.8,30.02,West,270,6.9,10.5,77,0.00,,,0.00,WUHU216HW,2013-02-01 06:36:00,
2013-02-01 00:41:00,-0.2,-5.8,30.02,WNW,293,5.1,11.9,77,0.00,,,0.00,WUHU216HW,2013-02-01 06:41:00,
2013-02-01 00:46:00,-0.2,-5.8,30.02,NNW,338,10.5,12.1,77,0.00,,,0.00,WUHU216HW,2013-02-01 06:46:00,
2013-02-01 00:51:00,-0.2,-5.8,30.02,West,270,8.5,13.6,77,0.00,,,0.00,WUHU216HW,2013-02-01 06:51:00,
2013-02-01 00:56:00,-0.2,-5.5,30.03,WNW,293,8.5,13.6,78,0.00,,,0.00,WUHU216HW,2013-02-01 06:56:00,
2013-02-01 01:01:00,-0.4,-5.9,30.04,NW,315,8.5,13.0,77,0.00,,,0.00,WUHU216HW,2013-02-01 07:01:00,
2013-02-01 01:05:00,-0.4,-5.9,30.04,West,270,12.3,12.3,77,0.00,,,0.00,WUHU216HW,2013-02-01 07:05:00,
2013-02-01 01:10:00,-0.4,-5.6,30.04,West,270,7.2,13.6,78,0.00,,,0.00,WUHU216HW,2013-02-01 07:10:00,
2013-02-01 01:15:00,-0.5,-5.7,30.04,NNW,338,9.8,13.6,78,0.00,,,0.00,WUHU216HW,2013-02-01 07:15:00,
2013-02-01 01:20:00,-0.7,-5.9,30.04,NNW,338,10.5,12.1,78,0.00,,,0.00,WUHU216HW,2013-02-01 07:20:00,
2013-02-01 01:25:00,-0.7,-5.9,30.04,WNW,293,13.4,14.1,78,0.00,,,0.00,WUHU216HW,2013-02-01 07:25:00,
2013-02-01 01:30:00,-0.7,-5.9,30.05,West,270,10.1,14.1,78,0.00,,,0.00,WUHU216HW,2013-02-01 07:30:00,
2013-02-01 01:35:00,-0.7,-5.9,30.05,WNW,293,5.4,13.4,78,0.00,,,0.00,WUHU216HW,2013-02-01 07:35:00,
2013-02-01 01:40:00,-0.9,-6.1,30.05,West,270,6.0,12.1,78,0.00,,,0.00,WUHU216HW,2013-02-01 07:40:00,
2013-02-01 01:45:00,-0.9,-6.1,30.05,NW,315,8.5,14.8,78,0.00,,,0.00,WUHU216HW,2013-02-01 07:45:00,
2013-02-01 01:50:00,-1.1,-6.3,30.05,WNW,293,7.2,14.8,78,0.00,,,0.00,WUHU216HW,2013-02-01 07:50:00,
2013-02-01 01:55:00,-1.1,-6.3,30.06,WNW,293,9.2,13.4,78,0.00,,,0.00,WUHU216HW,2013-02-01 07:55:00,
2013-02-01 02:00:00,-1.1,-6.3,30.06,WSW,248,6.7,13.2,78,0.00,,,0.00,WUHU216HW,2013-02-01 08:00:00,
2013-02-01 02:05:00,-1.3,-6.5,30.06,West,270,5.6,11.6,78,0.00,,,0.00,WUHU216HW,2013-02-01 08:05:00,
2013-02-01 02:10:00,-1.3,-6.5,30.06,WSW,248,11.2,15.4,78,0.00,,,0.00,WUHU216HW,2013-02-01 08:10:00,
2013-02-01 02:15:00,-1.3,-6.5,30.07,WSW,248,8.5,15.4,78,0.00,,,0.00,WUHU216HW,2013-02-01 08:15:00,
2013-02-01 02:20:00,-1.4,-6.9,30.07,WNW,293,12.1,12.8,77,0.00,,,0.00,WUHU216HW,2013-02-01 08:20:00,
2013-02-01 02:25:00,-1.4,-6.6,30.07,West,270,8.1,12.8,78,0.00,,,0.00,WUHU216HW,2013-02-01 08:25:00,
2013-02-01 02:30:00,-1.6,-6.8,30.07,West,270,9.4,12.1,78,0.00,,,0.00,WUHU216HW,2013-02-01 08:30:00,
2013-02-01 02:35:00,-1.8,-7.3,30.07,WSW,248,6.3,10.5,77,0.00,,,0.00,WUHU216HW,2013-02-01 08:35:00,
2013-02-01 02:40:00,-1.8,-7.3,30.07,SSW,203,9.2,11.4,77,0.00,,,0.00,WUHU216HW,2013-02-01 08:40:00,
2013-02-01 02:45:00,-1.8,-7.3,30.07,West,270,9.8,13.0,77,0.00,,,0.00,WUHU216HW,2013-02-01 08:45:00,
2013-02-01 02:50:00,-1.8,-7.3,30.08,West,270,8.5,13.2,77,0.00,,,0.00,WUHU216HW,2013-02-01 08:50:00,
2013-02-01 02:55:00,-2.0,-7.5,30.08,West,270,6.9,13.2,77,0.00,,,0.00,WUHU216HW,2013-02-01 08:55:00,
2013-02-01 03:00:00,-2.2,-7.6,30.08,WSW,248,9.6,13.4,77,0.00,,,0.00,WUHU216HW,2013-02-01 09:00:00,
2013-02-01 03:05:00,-2.2,-7.6,30.08,West,270,7.6,13.4,77,0.00,,,0.00,WUHU216HW,2013-02-01 09:05:00,
2013-02-01 03:10:00,-2.2,-7.6,30.08,WNW,293,8.3,12.1,77,0.00,,,0.00,WUHU216HW,2013-02-01 09:10:00,
2013-02-01 03:15:00,-2.3,-7.6,30.08,WSW,248,10.5,12.1,78,0.00,,,0.00,WUHU216HW,2013-02-01 09:15:00,
2013-02-01 03:20:00,-2.3,-7.6,30.08,West,270,9.2,14.5,78,0.00,,,0.00,WUHU216HW,2013-02-01 09:20:00,
2013-02-01 03:25:00,-2.3,-7.8,30.08,WSW,248,10.5,14.5,77,0.00,,,0.00,WUHU216HW,2013-02-01 09:25:00,
2013-02-01 03:30:00,-2.5,-7.7,30.09,West,270,7.6,14.3,78,0.00,,,0.00,WUHU216HW,2013-02-01 09:30:00,
2013-02-01 03:35:00,-2.5,-7.7,30.09,West,270,8.5,14.3,78,0.00,,,0.00,WUHU216HW,2013-02-01 09:35:00,
2013-02-01 03:40:00,-2.5,-7.7,30.09,NW,315,5.8,13.4,78,0.00,,,0.00,WUHU216HW,2013-02-01 09:40:00,
2013-02-01 03:45:00,-2.5,-7.7,30.09,WSW,248,6.3,12.5,78,0.00,,,0.00,WUHU216HW,2013-02-01 09:45:00,
2013-02-01 03:50:00,-2.7,-7.9,30.09,West,270,8.7,13.4,78,0.00,,,0.00,WUHU216HW,2013-02-01 09:50:00,
2013-02-01 03:55:00,-2.7,-7.9,30.10,West,270,4.3,13.9,78,0.00,,,0.00,WUHU216HW,2013-02-01 09:55:00,
2013-02-01 04:00:00,-2.9,-8.1,30.09,West,270,10.1,15.7,78,0.00,,,0.00,WUHU216HW,2013-02-01 10:00:00,
2013-02-01 04:05:00,-2.9,-8.4,30.10,WNW,293,7.6,15.7,77,0.00,,,0.00,WUHU216HW,2013-02-01 10:05:00,
2013-02-01 04:10:00,-3.1,-8.3,30.10,West,270,9.4,13.9,78,0.00,,,0.00,WUHU216HW,2013-02-01 10:10:00,
2013-02-01 04:15:00,-3.2,-8.5,30.10,WNW,293,13.4,13.9,78,0.00,,,0.00,WUHU216HW,2013-02-01 10:15:00,
2013-02-01 04:20:00,-3.2,-8.5,30.10,WSW,248,11.6,13.9,78,0.00,,,0.00,WUHU216HW,2013-02-01 10:20:00,
2013-02-01 04:25:00,-3.4,-8.6,30.10,WNW,293,9.8,13.4,78,0.00,,,0.00,WUHU216HW,2013-02-01 10:25:00,
2013-02-01 04:30:00,-3.4,-8.6,30.11,NNW,338,5.4,13.0,78,0.00,,,0.00,WUHU216HW,2013-02-01 10:30:00,
2013-02-01 04:35:00,-3.6,-8.8,30.11,WSW,248,14.3,14.3,78,0.00,,,0.00,WUHU216HW,2013-02-01 10:35:00,
2013-02-01 04:40:00,-3.6,-9.1,30.11,WNW,293,9.4,15.0,77,0.00,,,0.00,WUHU216HW,2013-02-01 10:40:00,
2013-02-01 04:45:00,-3.8,-9.3,30.11,NW,315,4.3,15.0,77,0.00,,,0.00,WUHU216HW,2013-02-01 10:45:00,
2013-02-01 04:50:00,-3.8,-9.3,30.11,WSW,248,4.7,11.2,77,0.00,,,0.00,WUHU216HW,2013-02-01 10:50:00,
2013-02-01 04:55:00,-4.0,-9.4,30.11,SW,225,7.8,11.6,77,0.00,,,0.00,WUHU216HW,2013-02-01 10:55:00,
2013-02-01 05:00:00,-4.0,-9.2,30.11,West,270,7.4,12.1,78,0.00,,,0.00,WUHU216HW,2013-02-01 11:00:00,
2013-02-01 05:05:00,-4.0,-9.2,30.12,WNW,293,7.4,13.9,78,0.00,,,0.00,WUHU216HW,2013-02-01 11:05:00,
2013-02-01 05:10:00,-4.1,-9.4,30.12,WNW,293,7.6,13.9,78,0.00,,,0.00,WUHU216HW,2013-02-01 11:10:00,
2013-02-01 05:15:00,-4.1,-9.4,30.12,West,270,5.8,11.0,78,0.00,,,0.00,WUHU216HW,2013-02-01 11:15:00,
2013-02-01 05:20:00,-4.3,-9.5,30.12,West,270,8.7,11.0,78,0.00,,,0.00,WUHU216HW,2013-02-01 11:20:00,
2013-02-01 05:25:00,-4.5,-9.7,30.12,West,270,10.7,11.0,78,0.00,,,0.00,WUHU216HW,2013-02-01 11:25:00,
2013-02-01 05:30:00,-4.7,-9.9,30.12,SW,225,8.1,11.0,78,0.00,,,0.00,WUHU216HW,2013-02-01 11:30:00,
2013-02-01 05:35:00,-4.7,-9.9,30.12,NW,315,5.1,11.2,78,0.00,,,0.00,WUHU216HW,2013-02-01 11:35:00,
2013-02-01 05:40:00,-4.7,-9.9,30.12,WNW,293,7.6,12.1,78,0.00,,,0.00,WUHU216HW,2013-02-01 11:40:00,
2013-02-01 05:45:00,-4.7,-9.9,30.12,WSW,248,6.0,12.1,78,0.00,,,0.00,WUHU216HW,2013-02-01 11:45:00,
2013-02-01 05:50:00,-4.9,-10.1,30.12,NW,315,9.4,14.3,78,0.00,,,0.00,WUHU216HW,2013-02-01 11:50:00,
2013-02-01 05:55:00,-4.9,-10.1,30.13,West,270,7.6,14.3,78,0.00,,,0.00,WUHU216HW,2013-02-01 11:55:00,
2013-02-01 06:00:00,-4.9,-10.1,30.12,WSW,248,8.9,12.1,78,0.00,,,0.00,WUHU216HW,2013-02-01 12:00:00,
2013-02-01 06:05:00,-5.0,-10.3,30.13,WSW,248,6.7,12.1,78,0.00,,,0.00,WUHU216HW,2013-02-01 12:05:00,
2013-02-01 06:10:00,-5.2,-10.4,30.13,West,270,10.1,11.6,78,0.00,,,0.00,WUHU216HW,2013-02-01 12:10:00,
2013-02-01 06:15:00,-5.2,-10.4,30.13,West,270,8.5,11.6,78,0.00,,,0.00,WUHU216HW,2013-02-01 12:15:00,
2013-02-01 06:20:00,-5.4,-10.9,30.14,WSW,248,4.7,11.0,77,0.00,,,0.00,WUHU216HW,2013-02-01 12:20:00,
2013-02-01 06:25:00,-5.4,-10.6,30.14,WSW,248,8.7,11.6,78,0.00,,,0.00,WUHU216HW,2013-02-01 12:25:00,
2013-02-01 06:30:00,-5.4,-10.9,30.14,West,270,5.8,11.6,77,0.00,,,0.00,WUHU216HW,2013-02-01 12:30:00,
2013-02-01 06:35:00,-5.6,-11.1,30.14,West,270,6.5,11.2,77,0.00,,,0.00,WUHU216HW,2013-02-01 12:35:00,
2013-02-01 06:40:00,-5.6,-10.8,30.14,West,270,7.6,9.8,78,0.00,,,0.00,WUHU216HW,2013-02-01 12:40:00,
2013-02-01 06:45:00,-5.8,-11.0,30.14,WNW,293,6.9,10.5,78,0.00,,,0.00,WUHU216HW,2013-02-01 12:45:00,
2013-02-01 06:50:00,-5.9,-11.2,30.14,WSW,248,8.5,10.5,78,0.00,,,0.00,WUHU216HW,2013-02-01 12:50:00,
2013-02-01 06:55:00,-5.9,-11.2,30.15,West,270,7.6,9.2,78,0.00,,,0.00,WUHU216HW,2013-02-01 12:55:00,
2013-02-01 07:00:00,-6.1,-11.3,30.15,WSW,248,4.7,9.2,78,0.00,,,0.00,WUHU216HW,2013-02-01 13:00:00,
2013-02-01 07:05:00,-6.1,-11.3,30.15,SW,225,8.7,9.2,78,0.00,,,0.00,WUHU216HW,2013-02-01 13:05:00,
2013-02-01 07:10:00,-6.5,-11.7,30.15,WNW,293,5.4,9.2,78,0.00,,,0.00,WUHU216HW,2013-02-01 13:10:00,
2013-02-01 07:15:00,-6.5,-11.7,30.15,SW,225,5.8,8.1,78,0.00,,,0.00,WUHU216HW,2013-02-01 13:15:00,
2013-02-01 07:20:00,-6.7,-11.9,30.15,SW,225,5.1,7.6,78,0.00,,,0.00,WUHU216HW,2013-02-01 13:20:00,
2013-02-01 07:25:00,-6.7,-11.9,30.16,WSW,248,4.7,7.6,78,0.00,,,0.00,WUHU216HW,2013-02-01 13:25:00,
2013-02-01 07:30:00,-6.7,-11.9,30.16,WNW,293,3.4,6.9,78,0.00,,,0.00,WUHU216HW,2013-02-01 13:30:00,
2013-02-01 07:35:00,-6.5,-11.7,30.15,WSW,248,3.6,6.3,78,0.00,,,0.00,WUHU216HW,2013-02-01 13:35:00,
2013-02-01 07:40:00,-6.5,-11.4,30.16,WSW,248,5.6,6.3,79,0.00,,,0.00,WUHU216HW,2013-02-01 13:40:00,
2013-02-01 07:45:00,-6.3,-11.2,30.16,WSW,248,6.3,10.5,79,0.00,,,0.00,WUHU216HW,2013-02-01 13:45:00,
2013-02-01 07:50:00,-6.1,-11.3,30.17,WSW,248,4.7,10.5,78,0.00,,,0.00,WUHU216HW,2013-02-01 13:50:00,
2013-02-01 07:55:00,-6.1,-11.3,30.16,WSW,248,6.9,7.6,78,0.00,,,0.00,WUHU216HW,2013-02-01 13:55:00,
2013-02-01 08:00:00,-5.9,-11.2,30.16,WSW,248,6.7,8.7,78,0.00,,,0.00,WUHU216HW,2013-02-01 14:00:00,
2013-02-01 08:05:00,-5.8,-11.0,30.16,WSW,248,6.9,8.7,78,0.00,,,0.00,WUHU216HW,2013-02-01 14:05:00,
2013-02-01 08:10:00,-5.4,-10.6,30.17,West,270,8.3,8.3,78,0.00,,,0.00,WUHU216HW,2013-02-01 14:10:00,
2013-02-01 08:15:00,-5.4,-10.9,30.17,SW,225,4.7,10.1,77,0.00,,,0.00,WUHU216HW,2013-02-01 14:15:00,
2013-02-01 08:20:00,-5.2,-10.4,30.17,West,270,5.6,10.1,78,0.00,,,0.00,WUHU216HW,2013-02-01 14:20:00,
2013-02-01 08:25:00,-5.0,-10.5,30.17,WSW,248,7.6,9.8,77,0.00,,,0.00,WUHU216HW,2013-02-01 14:25:00,
2013-02-01 08:30:00,-4.9,-10.3,30.18,West,270,4.0,9.8,77,0.00,,,0.00,WUHU216HW,2013-02-01 14:30:00,
2013-02-01 08:35:00,-4.7,-10.4,30.17,West,270,6.7,9.8,76,0.00,,,0.00,WUHU216HW,2013-02-01 14:35:00,
2013-02-01 08:40:00,-4.7,-10.7,30.17,WSW,248,6.0,11.2,75,0.00,,,0.00,WUHU216HW,2013-02-01 14:40:00,
2013-02-01 08:45:00,-4.5,-10.5,30.17,WSW,248,10.5,12.8,75,0.00,,,0.00,WUHU216HW,2013-02-01 14:45:00,
2013-02-01 08:50:00,-4.5,-10.5,30.17,West,270,9.4,12.8,75,0.00,,,0.00,WUHU216HW,2013-02-01 14:50:00,
2013-02-01 08:55:00,-4.3,-10.6,30.17,WSW,248,6.3,10.5,74,0.00,,,0.00,WUHU216HW,2013-02-01 14:55:00,
2013-02-01 09:00:00,-4.3,-10.6,30.18,SW,225,8.1,13.4,74,0.00,,,0.00,WUHU216HW,2013-02-01 15:00:00,
2013-02-01 09:05:00,-4.3,-10.6,30.17,WSW,248,6.5,13.4,74,0.00,,,0.00,WUHU216HW,2013-02-01 15:05:00,
2013-02-01 09:10:00,-4.1,-10.4,30.17,SW,225,9.8,12.8,74,0.00,,,0.00,WUHU216HW,2013-02-01 15:10:00,
2013-02-01 09:15:00,-4.0,-10.3,30.17,West,270,6.9,12.8,74,0.00,,,0.00,WUHU216HW,2013-02-01 15:15:00,
2013-02-01 09:20:00,-4.0,-10.5,30.17,WSW,248,9.6,12.8,73,0.00,,,0.00,WUHU216HW,2013-02-01 15:20:00,
2013-02-01 09:25:00,-4.0,-10.5,30.17,West,270,7.8,11.4,73,0.00,,,0.00,WUHU216HW,2013-02-01 15:25:00,
2013-02-01 09:30:00,-3.4,-10.0,30.17,NNW,338,3.1,11.0,73,0.00,,,0.00,WUHU216HW,2013-02-01 15:30:00,
2013-02-01 09:35:00,-3.1,-9.4,30.17,WSW,248,8.9,8.9,74,0.00,,,0.00,WUHU216HW,2013-02-01 15:35:00,
2013-02-01 09:40:00,-2.9,-9.7,30.17,WNW,293,4.0,10.7,72,0.00,,,0.00,WUHU216HW,2013-02-01 15:40:00,
2013-02-01 09:45:00,-3.1,-10.2,30.17,West,270,7.8,12.5,71,0.00,,,0.00,WUHU216HW,2013-02-01 15:45:00,
2013-02-01 09:50:00,-3.2,-10.1,30.17,NW,315,8.1,12.5,72,0.00,,,0.00,WUHU216HW,2013-02-01 15:50:00,
2013-02-01 09:55:00,-3.2,-10.1,30.17,WNW,293,6.3,10.7,72,0.00,,,0.00,WUHU216HW,2013-02-01 15:55:00,
2013-02-01 10:00:00,-2.9,-10.0,30.17,West,270,7.6,10.7,71,0.00,,,0.00,WUHU216HW,2013-02-01 16:00:00,
2013-02-01 10:05:00,-2.9,-10.0,30.17,West,270,6.3,10.7,71,0.00,,,0.00,WUHU216HW,2013-02-01 16:05:00,
2013-02-01 10:10:00,-2.5,-9.6,30.17,WNW,293,8.3,11.4,71,0.00,,,0.00,WUHU216HW,2013-02-01 16:10:00,
2013-02-01 10:15:00,-2.5,-9.9,30.17,WNW,293,5.1,11.4,70,0.00,,,0.00,WUHU216HW,2013-02-01 16:15:00,
2013-02-01 10:20:00,-2.2,-9.3,30.17,West,270,7.2,10.3,71,0.00,,,0.00,WUHU216HW,2013-02-01 16:20:00,
2013-02-01 10:25:00,-2.0,-9.3,30.17,SW,225,8.1,9.4,70,0.00,,,0.00,WUHU216HW,2013-02-01 16:25:00,
2013-02-01 10:30:00,-1.8,-9.5,30.17,WNW,293,10.1,13.4,69,0.00,,,0.00,WUHU216HW,2013-02-01 16:30:00,
2013-02-01 10:35:00,-1.8,-9.5,30.17,West,270,5.8,13.4,69,0.00,,,0.00,WUHU216HW,2013-02-01 16:35:00,
2013-02-01 10:40:00,-1.6,-9.3,30.17,WNW,293,6.0,11.2,69,0.00,,,0.00,WUHU216HW,2013-02-01 16:40:00,
2013-02-01 10:45:00,-1.8,-9.5,30.17,WSW,248,7.6,9.8,69,0.00,,,0.00,WUHU216HW,2013-02-01 16:45:00,
2013-02-01 10:50:00,-1.6,-9.3,30.17,West,270,7.6,11.9,69,0.00,,,0.00,WUHU216HW,2013-02-01 16:50:00,
2013-02-01 10:55:00,-1.1,-8.9,30.17,WSW,248,9.6,11.9,69,0.00,,,0.00,WUHU216HW,2013-02-01 16:55:00,
2013-02-01 11:00:00,-0.9,-8.7,30.17,WSW,248,8.7,10.1,69,0.00,,,0.00,WUHU216HW,2013-02-01 17:00:00,
2013-02-01 11:05:00,-0.7,-8.3,30.17,WSW,248,8.5,10.1,70,0.00,,,0.00,WUHU216HW,2013-02-01 17:05:00,
2013-02-01 11:10:00,-0.5,-8.1,30.17,WSW,248,9.8,11.9,70,0.00,,,0.00,WUHU216HW,2013-02-01 17:10:00,
2013-02-01 11:15:00,-0.4,-8.2,30.17,West,270,9.8,13.4,69,0.00,,,0.00,WUHU216HW,2013-02-01 17:15:00,
2013-02-01 11:20:00,-0.5,-8.4,30.17,WSW,248,11.4,13.4,69,0.00,,,0.00,WUHU216HW,2013-02-01 17:20:00,
2013-02-01 11:25:00,-0.5,-8.1,30.17,WSW,248,7.4,13.4,70,0.00,,,0.00,WUHU216HW,2013-02-01 17:25:00,
2013-02-01 11:30:00,-0.4,-7.9,30.17,WSW,248,10.1,12.1,70,0.00,,,0.00,WUHU216HW,2013-02-01 17:30:00,
2013-02-01 11:35:00,-0.4,-8.2,30.16,WSW,248,8.1,12.1,69,0.00,,,0.00,WUHU216HW,2013-02-01 17:35:00,
2013-02-01 11:40:00,0.0,-7.8,30.16,WSW,248,6.3,11.4,69,0.00,,,0.00,WUHU216HW,2013-02-01 17:40:00,
2013-02-01 11:45:00,0.0,-7.8,30.15,WSW,248,7.4,11.2,69,0.00,,,0.00,WUHU216HW,2013-02-01 17:45:00,
2013-02-01 11:50:00,0.2,-7.6,30.15,WSW,248,6.5,11.2,69,0.00,,,0.00,WUHU216HW,2013-02-01 17:50:00,
2013-02-01 11:55:00,0.9,-7.0,30.15,SW,225,9.4,9.6,69,0.00,,,0.00,WUHU216HW,2013-02-01 17:55:00,
2013-02-01 12:00:00,0.9,-7.3,30.15,WSW,248,6.9,11.0,68,0.00,,,0.00,WUHU216HW,2013-02-01 18:00:00,
2013-02-01 12:05:00,0.9,-7.3,30.15,SSW,203,6.5,11.0,68,0.00,,,0.00,WUHU216HW,2013-02-01 18:05:00,
2013-02-01 12:10:00,1.3,-6.7,30.14,SSW,203,3.8,8.7,69,0.00,,,0.00,WUHU216HW,2013-02-01 18:10:00,
2013-02-01 12:15:00,1.8,-6.4,30.14,West,270,6.7,9.2,68,0.00,,,0.00,WUHU216HW,2013-02-01 18:15:00,
2013-02-01 12:20:00,1.6,-6.9,30.14,SW,225,8.5,10.5,67,0.00,,,0.00,WUHU216HW,2013-02-01 18:20:00,
2013-02-01 12:25:00,1.6,-6.9,30.15,WSW,248,9.8,10.7,67,0.00,,,0.00,WUHU216HW,2013-02-01 18:25:00,
2013-02-01 12:30:00,1.8,-6.7,30.14,SSW,203,7.8,10.7,67,0.00,,,0.00,WUHU216HW,2013-02-01 18:30:00,
2013-02-01 12:35:00,2.2,-6.0,30.14,SSW,203,9.4,10.7,68,0.00,,,0.00,WUHU216HW,2013-02-01 18:35:00,
2013-02-01 12:40:00,2.5,-6.0,30.14,WSW,248,7.2,11.4,67,0.00,,,0.00,WUHU216HW,2013-02-01 18:40:00,
2013-02-01 12:45:00,2.7,-5.8,30.14,SSW,203,7.6,11.4,67,0.00,,,0.00,WUHU216HW,2013-02-01 18:45:00,
2013-02-01 12:50:00,2.9,-5.3,30.14,SW,225,8.1,10.1,68,0.00,,,0.00,WUHU216HW,2013-02-01 18:50:00,
2013-02-01 12:54:00,3.1,-5.5,30.14,SSW,203,6.5,10.1,67,0.00,,,0.00,WUHU216HW,2013-02-01 18:54:00,
2013-02-01 12:59:00,3.2,-5.3,30.14,WSW,248,6.7,10.5,67,0.00,,,0.00,WUHU216HW,2013-02-01 18:59:00,
2013-02-01 13:04:00,3.2,-5.3,30.13,SW,225,8.1,12.8,67,0.00,,,0.00,WUHU216HW,2013-02-01 19:04:00,
2013-02-01 13:09:00,3.2,-5.3,30.13,WSW,248,6.9,12.8,67,0.00,,,0.00,WUHU216HW,2013-02-01 19:09:00,
2013-02-01 13:14:00,3.6,-4.9,30.13,WSW,248,9.6,13.2,67,0.00,,,0.00,WUHU216HW,2013-02-01 19:14:00,
2013-02-01 13:19:00,3.2,-5.3,30.12,WSW,248,12.1,13.2,67,0.00,,,0.00,WUHU216HW,2013-02-01 19:19:00,
2013-02-01 13:24:00,3.2,-5.3,30.12,WSW,248,12.1,13.4,67,0.00,,,0.00,WUHU216HW,2013-02-01 19:24:00,
2013-02-01 13:29:00,3.2,-5.3,30.12,WSW,248,12.5,13.9,67,0.00,,,0.00,WUHU216HW,2013-02-01 19:29:00,
2013-02-01 13:34:00,3.2,-5.3,30.12,SW,225,11.4,15.7,67,0.00,,,0.00,WUHU216HW,2013-02-01 19:34:00,
2013-02-01 13:39:00,3.2,-5.6,30.12,WSW,248,12.5,15.7,66,0.00,,,0.00,WUHU216HW,2013-02-01 19:39:00,
2013-02-01 13:44:00,3.2,-5.3,30.12,WSW,248,11.4,15.0,67,0.00,,,0.00,WUHU216HW,2013-02-01 19:44:00,
2013-02-01 13:49:00,3.4,-5.1,30.12,WSW,248,13.4,15.0,67,0.00,,,0.00,WUHU216HW,2013-02-01 19:49:00,
2013-02-01 13:54:00,3.6,-4.9,30.12,WSW,248,13.4,13.4,67,0.00,,,0.00,WUHU216HW,2013-02-01 19:54:00,
2013-02-01 13:59:00,3.4,-5.5,30.12,WSW,248,12.5,14.3,66,0.00,,,0.00,WUHU216HW,2013-02-01 19:59:00,
2013-02-01 14:04:00,3.6,-5.3,30.12,West,270,11.6,14.8,66,0.00,,,0.00,WUHU216HW,2013-02-01 20:04:00,
2013-02-01 14:09:00,3.2,-5.6,30.12,SW,225,11.9,15.7,66,0.00,,,0.00,WUHU216HW,2013-02-01 20:09:00,
2013-02-01 14:14:00,3.2,-5.3,30.12,SW,225,12.3,15.7,67,0.00,,,0.00,WUHU216HW,2013-02-01 20:14:00,
2013-02-01 14:19:00,3.6,-4.9,30.12,WSW,248,10.5,15.0,67,0.00,,,0.00,WUHU216HW,2013-02-01 20:19:00,
2013-02-01 14:24:00,3.8,-5.1,30.12,WSW,248,10.5,14.3,66,0.00,,,0.00,WUHU216HW,2013-02-01 20:24:00,
2013-02-01 14:29:00,3.6,-4.9,30.12,WSW,248,9.8,12.5,67,0.00,,,0.00,WUHU216HW,2013-02-01 20:29:00,
2013-02-01 14:34:00,3.6,-5.3,30.12,South,180,8.7,11.0,66,0.00,,,0.00,WUHU216HW,2013-02-01 20:34:00,
2013-02-01 14:39:00,3.4,-5.1,30.12,SSW,203,10.3,13.2,67,0.00,,,0.00,WUHU216HW,2013-02-01 20:39:00,
2013-02-01 14:44:00,3.2,-5.6,30.12,SW,225,9.6,13.2,66,0.00,,,0.00,WUHU216HW,2013-02-01 20:44:00,
2013-02-01 14:49:00,3.4,-5.5,30.11,SW,225,10.5,13.0,66,0.00,,,0.00,WUHU216HW,2013-02-01 20:49:00,
2013-02-01 14:54:00,3.6,-5.3,30.12,WSW,248,13.4,13.4,66,0.00,,,0.00,WUHU216HW,2013-02-01 20:54:00,
2013-02-01 14:59:00,3.4,-5.1,30.11,WSW,248,11.6,13.4,67,0.00,,,0.00,WUHU216HW,2013-02-01 20:59:00,
2013-02-01 15:04:00,3.4,-5.5,30.11,WSW,248,10.1,13.4,66,0.00,,,0.00,WUHU216HW,2013-02-01 21:04:00,
2013-02-01 15:09:00,3.6,-4.9,30.11,SW,225,6.0,11.6,67,0.00,,,0.00,WUHU216HW,2013-02-01 21:09:00,
2013-02-01 15:14:00,3.8,-4.8,30.11,WSW,248,8.5,11.2,67,0.00,,,0.00,WUHU216HW,2013-02-01 21:14:00,
2013-02-01 15:19:00,4.0,-4.7,30.10,SW,225,7.4,11.2,67,0.00,,,0.00,WUHU216HW,2013-02-01 21:19:00,
2013-02-01 15:24:00,4.1,-4.8,30.10,WSW,248,11.2,12.8,66,0.00,,,0.00,WUHU216HW,2013-02-01 21:24:00,
2013-02-01 15:29:00,4.0,-4.7,30.10,WSW,248,11.0,12.8,67,0.00,,,0.00,WUHU216HW,2013-02-01 21:29:00,
2013-02-01 15:34:00,4.0,-4.9,30.10,SW,225,7.6,14.8,66,0.00,,,0.00,WUHU216HW,2013-02-01 21:34:00,
2013-02-01 15:39:00,3.6,-4.9,30.10,WSW,248,9.8,14.8,67,0.00,,,0.00,WUHU216HW,2013-02-01 21:39:00,
2013-02-01 15:44:00,3.6,-5.3,30.10,WSW,248,10.5,14.3,66,0.00,,,0.00,WUHU216HW,2013-02-01 21:44:00,
2013-02-01 15:49:00,3.6,-4.9,30.10,WSW,248,8.5,14.1,67,0.00,,,0.00,WUHU216HW,2013-02-01 21:49:00,
2013-02-01 15:54:00,3.8,-4.8,30.09,SW,225,8.5,11.9,67,0.00,,,0.00,WUHU216HW,2013-02-01 21:54:00,
2013-02-01 15:59:00,3.8,-4.8,30.09,SW,225,8.1,10.5,67,0.00,,,0.00,WUHU216HW,2013-02-01 21:59:00,
2013-02-01 16:04:00,3.6,-4.9,30.09,SW,225,3.6,9.6,67,0.00,,,0.00,WUHU216HW,2013-02-01 22:04:00,
2013-02-01 16:09:00,3.8,-4.8,30.09,WSW,248,6.5,9.6,67,0.00,,,0.00,WUHU216HW,2013-02-01 22:09:00,
2013-02-01 16:14:00,3.6,-4.9,30.09,SW,225,8.9,10.3,67,0.00,,,0.00,WUHU216HW,2013-02-01 22:14:00,
2013-02-01 16:19:00,3.4,-5.1,30.09,WSW,248,9.8,10.5,67,0.00,,,0.00,WUHU216HW,2013-02-01 22:19:00,
2013-02-01 16:24:00,3.4,-5.1,30.08,WSW,248,6.0,10.5,67,0.00,,,0.00,WUHU216HW,2013-02-01 22:24:00,
2013-02-01 16:29:00,3.4,-4.8,30.08,WSW,248,6.9,8.9,68,0.00,,,0.00,WUHU216HW,2013-02-01 22:29:00,
2013-02-01 16:34:00,3.4,-4.8,30.08,SW,225,5.8,8.1,68,0.00,,,0.00,WUHU216HW,2013-02-01 22:34:00,
2013-02-01 16:39:00,3.2,-4.9,30.08,SSW,203,6.3,9.8,68,0.00,,,0.00,WUHU216HW,2013-02-01 22:39:00,
2013-02-01 16:44:00,3.2,-4.9,30.08,WSW,248,8.3,9.8,68,0.00,,,0.00,WUHU216HW,2013-02-01 22:44:00,
2013-02-01 16:49:00,3.2,-4.9,30.08,WSW,248,8.5,9.2,68,0.00,,,0.00,WUHU216HW,2013-02-01 22:49:00,
2013-02-01 16:54:00,3.1,-5.1,30.08,SSW,203,6.0,8.9,68,0.00,,,0.00,WUHU216HW,2013-02-01 22:54:00,
2013-02-01 16:59:00,2.9,-5.0,30.08,SW,225,6.3,8.9,69,0.00,,,0.00,WUHU216HW,2013-02-01 22:59:00,
2013-02-01 17:04:00,2.7,-5.2,30.08,SW,225,3.4,8.5,69,0.00,,,0.00,WUHU216HW,2013-02-01 23:04:00,
2013-02-01 17:09:00,2.7,-5.2,30.08,SSW,203,6.3,6.9,69,0.00,,,0.00,WUHU216HW,2013-02-01 23:09:00,
2013-02-01 17:14:00,2.5,-5.0,30.08,SW,225,6.5,9.2,70,0.00,,,0.00,WUHU216HW,2013-02-01 23:14:00,
2013-02-01 17:19:00,2.3,-5.2,30.08,SSW,203,5.4,9.2,70,0.00,,,0.00,WUHU216HW,2013-02-01 23:19:00,
2013-02-01 17:24:00,2.3,-5.2,30.08,SW,225,8.3,8.9,70,0.00,,,0.00,WUHU216HW,2013-02-01 23:24:00,
2013-02-01 17:29:00,2.3,-5.2,30.07,SSW,203,6.9,10.7,70,0.00,,,0.00,WUHU216HW,2013-02-01 23:29:00,
2013-02-01 17:34:00,2.5,-5.0,30.08,SW,225,11.0,12.3,70,0.00,,,0.00,WUHU216HW,2013-02-01 23:34:00,
2013-02-01 17:39:00,2.5,-5.0,30.08,SW,225,7.6,12.3,70,0.00,,,0.00,WUHU216HW,2013-02-01 23:39:00,
2013-02-01 17:44:00,2.3,-5.2,30.07,SW,225,8.3,11.0,70,0.00,,,0.00,WUHU216HW,2013-02-01 23:44:00,
2013-02-01 17:49:00,2.3,-5.2,30.07,South,180,7.4,13.0,70,0.00,,,0.00,WUHU216HW,2013-02-01 23:49:00,
2013-02-01 17:54:00,2.5,-4.8,30.07,WSW,248,8.9,13.0,71,0.00,,,0.00,WUHU216HW,2013-02-01 23:54:00,
2013-02-01 17:59:00,2.5,-4.8,30.07,SSW,203,7.6,10.5,71,0.00,,,0.00,WUHU216HW,2013-02-01 23:59:00,
2013-02-01 18:04:00,2.9,-4.4,30.07,WSW,248,7.6,8.9,71,0.00,,,0.00,WUHU216HW,2013-02-02 00:04:00,
2013-02-01 18:09:00,2.9,-4.4,30.06,SW,225,4.9,8.9,71,0.00,,,0.00,WUHU216HW,2013-02-02 00:09:00,
2013-02-01 18:14:00,3.1,-4.2,30.07,WSW,248,6.5,11.4,71,0.00,,,0.00,WUHU216HW,2013-02-02 00:14:00,
2013-02-01 18:19:00,3.1,-4.0,30.07,SW,225,7.4,11.4,72,0.00,,,0.00,WUHU216HW,2013-02-02 00:19:00,
2013-02-01 18:24:00,3.2,-3.8,30.07,SW,225,7.6,10.5,72,0.00,,,0.00,WUHU216HW,2013-02-02 00:24:00,
2013-02-01 18:29:00,3.2,-3.8,30.06,SW,225,9.4,10.5,72,0.00,,,0.00,WUHU216HW,2013-02-02 00:29:00,
2013-02-01 18:34:00,3.2,-3.8,30.06,SW,225,4.5,9.6,72,0.00,,,0.00,WUHU216HW,2013-02-02 00:34:00,
2013-02-01 18:39:00,3.4,-3.6,30.06,SW,225,7.6,9.8,72,0.00,,,0.00,WUHU216HW,2013-02-02 00:39:00,
2013-02-01 18:44:00,3.4,-3.6,30.06,SSW,203,6.5,12.3,72,0.00,,,0.00,WUHU216HW,2013-02-02 00:44:00,
2013-02-01 18:49:00,3.6,-3.1,30.06,SSW,203,7.4,12.3,73,0.00,,,0.00,WUHU216HW,2013-02-02 00:49:00,
2013-02-01 18:54:00,3.6,-3.1,30.06,WSW,248,8.1,10.5,73,0.00,,,0.00,WUHU216HW,2013-02-02 00:54:00,
2013-02-01 18:59:00,3.8,-3.2,30.06,SW,225,10.1,12.1,72,0.00,,,0.00,WUHU216HW,2013-02-02 00:59:00,
2013-02-01 19:04:00,3.8,-3.2,30.06,SSW,203,8.1,12.1,72,0.00,,,0.00,WUHU216HW,2013-02-02 01:04:00,
2013-02-01 19:09:00,3.8,-3.2,30.06,SSW,203,5.4,10.1,72,0.00,,,0.00,WUHU216HW,2013-02-02 01:09:00,
2013-02-01 19:14:00,4.0,-3.1,30.06,SSW,203,8.5,10.5,72,0.00,,,0.00,WUHU216HW,2013-02-02 01:14:00,
2013-02-01 19:19:00,4.0,-2.9,30.06,SW,225,8.1,10.5,73,0.00,,,0.00,WUHU216HW,2013-02-02 01:19:00,
2013-02-01 19:24:00,3.8,-3.0,30.05,SSW,203,8.3,9.8,73,0.00,,,0.00,WUHU216HW,2013-02-02 01:24:00,
2013-02-01 19:29:00,3.8,-2.7,30.06,SW,225,5.4,8.5,74,0.00,,,0.00,WUHU216HW,2013-02-02 01:29:00,
2013-02-01 19:34:00,3.8,-2.7,30.06,SW,225,5.1,8.5,74,0.00,,,0.00,WUHU216HW,2013-02-02 01:34:00,
2013-02-01 19:39:00,3.8,-2.4,30.06,WSW,248,9.2,9.2,75,0.00,,,0.00,WUHU216HW,2013-02-02 01:39:00,
2013-02-01 19:44:00,3.8,-2.1,30.06,SSW,203,8.5,9.6,76,0.00,,,0.00,WUHU216HW,2013-02-02 01:44:00,
2013-02-01 19:49:00,4.0,-2.0,30.06,SW,225,7.8,9.6,76,0.00,,,0.00,WUHU216HW,2013-02-02 01:49:00,
2013-02-01 19:54:00,3.8,-1.9,30.06,WSW,248,6.0,9.4,77,0.00,,,0.00,WUHU216HW,2013-02-02 01:54:00,
2013-02-01 19:59:00,4.0,-1.7,30.06,SW,225,4.7,9.4,77,0.00,,,0.00,WUHU216HW,2013-02-02 01:59:00,
2013-02-01 20:04:00,4.0,-1.4,30.06,SSW,203,5.4,8.1,78,0.00,,,0.00,WUHU216HW,2013-02-02 02:04:00,
2013-02-01 20:09:00,4.0,-1.4,30.06,SW,225,6.3,8.5,78,0.00,,,0.00,WUHU216HW,2013-02-02 02:09:00,
2013-02-01 20:14:00,4.0,-1.4,30.06,SW,225,5.8,8.5,78,0.00,,,0.00,WUHU216HW,2013-02-02 02:14:00,
2013-02-01 20:19:00,4.0,-1.4,30.06,SW,225,6.7,7.4,78,0.00,,,0.00,WUHU216HW,2013-02-02 02:19:00,
2013-02-01 20:24:00,4.0,-1.2,30.06,SSW,203,6.0,7.4,79,0.00,,,0.00,WUHU216HW,2013-02-02 02:24:00,
2013-02-01 20:29:00,4.0,-1.4,30.06,SW,225,6.0,8.1,78,0.00,,,0.00,WUHU216HW,2013-02-02 02:29:00,
2013-02-01 20:34:00,4.1,-1.2,30.05,SSW,203,3.6,8.1,78,0.00,,,0.00,WUHU216HW,2013-02-02 02:34:00,
2013-02-01 20:39:00,4.3,-1.1,30.05,SW,225,3.8,6.9,78,0.00,,,0.00,WUHU216HW,2013-02-02 02:39:00,
2013-02-01 20:44:00,4.3,-0.8,30.05,SSW,203,6.3,6.3,79,0.00,,,0.00,WUHU216HW,2013-02-02 02:44:00,
2013-02-01 20:49:00,4.5,-0.6,30.05,SSW,203,7.6,7.6,79,0.00,,,0.00,WUHU216HW,2013-02-02 02:49:00,
2013-02-01 20:54:00,4.5,-0.6,30.04,SSW,203,4.5,7.6,79,0.00,,,0.00,WUHU216HW,2013-02-02 02:54:00,
2013-02-01 20:59:00,4.5,-0.4,30.04,SSW,203,5.4,7.6,80,0.00,,,0.00,WUHU216HW,2013-02-02 02:59:00,
2013-02-01 21:04:00,4.5,-0.4,30.04,SW,225,4.3,7.2,80,0.00,,,0.00,WUHU216HW,2013-02-02 03:04:00,
2013-02-01 21:09:00,4.7,-0.2,30.04,SSW,203,6.7,6.9,80,0.00,,,0.00,WUHU216HW,2013-02-02 03:09:00,
2013-02-01 21:14:00,4.7,-0.2,30.04,SSW,203,6.3,7.8,80,0.00,,,0.00,WUHU216HW,2013-02-02 03:14:00,
2013-02-01 21:19:00,4.7,-0.2,30.04,South,180,5.8,7.8,80,0.00,,,0.00,WUHU216HW,2013-02-02 03:19:00,
2013-02-01 21:24:00,4.7,-0.2,30.04,SW,225,5.8,7.6,80,0.00,,,0.00,WUHU216HW,2013-02-02 03:24:00,
2013-02-01 21:29:00,4.7,-0.2,30.04,South,180,5.6,6.7,80,0.00,,,0.00,WUHU216HW,2013-02-02 03:29:00,
2013-02-01 21:34:00,4.5,-0.4,30.04,West,270,7.6,8.1,80,0.00,,,0.00,WUHU216HW,2013-02-02 03:34:00,
2013-02-01 21:39:00,4.5,-0.1,30.04,SW,225,9.2,9.2,81,0.00,,,0.00,WUHU216HW,2013-02-02 03:39:00,
2013-02-01 21:44:00,4.5,-0.1,30.04,SSW,203,7.6,9.2,81,0.00,,,0.00,WUHU216HW,2013-02-02 03:44:00,
2013-02-01 21:49:00,4.5,0.2,30.04,SSW,203,6.7,9.2,82,0.00,,,0.00,WUHU216HW,2013-02-02 03:49:00,
2013-02-01 21:54:00,4.5,0.2,30.04,SW,225,5.4,8.5,82,0.00,,,0.00,WUHU216HW,2013-02-02 03:54:00,
2013-02-01 21:59:00,4.5,0.2,30.04,SW,225,6.9,8.5,82,0.00,,,0.00,WUHU216HW,2013-02-02 03:59:00,
2013-02-01 22:04:00,4.5,0.2,30.04,SW,225,6.9,8.1,82,0.00,,,0.00,WUHU216HW,2013-02-02 04:04:00,
2013-02-01 22:09:00,4.5,0.2,30.04,SW,225,6.3,8.1,82,0.00,,,0.00,WUHU216HW,2013-02-02 04:09:00,
2013-02-01 22:14:00,4.5,0.2,30.04,SW,225,5.8,8.9,82,0.00,,,0.00,WUHU216HW,2013-02-02 04:14:00,
2013-02-01 22:19:00,4.5,0.2,30.03,SW,225,5.6,8.9,82,0.00,,,0.00,WUHU216HW,2013-02-02 04:19:00,
2013-02-01 22:24:00,4.5,0.2,30.03,SW,225,6.9,7.6,82,0.00,,,0.00,WUHU216HW,2013-02-02 04:24:00,
2013-02-01 22:29:00,4.7,0.4,30.03,SSW,203,4.0,7.6,82,0.00,,,0.00,WUHU216HW,2013-02-02 04:29:00,
2013-02-01 22:34:00,4.7,0.4,30.02,SW,225,4.7,8.1,82,0.00,,,0.00,WUHU216HW,2013-02-02 04:34:00,
2013-02-01 22:39:00,4.7,0.4,30.02,SW,225,4.0,8.1,82,0.00,,,0.00,WUHU216HW,2013-02-02 04:39:00,
2013-02-01 22:44:00,4.7,0.4,30.01,SSW,203,5.8,6.3,82,0.00,,,0.00,WUHU216HW,2013-02-02 04:44:00,
2013-02-01 22:49:00,4.9,0.6,30.01,SSW,203,5.4,6.3,82,0.00,,,0.00,WUHU216HW,2013-02-02 04:49:00,
2013-02-01 22:54:00,5.0,0.7,30.01,SW,225,6.9,6.9,82,0.00,,,0.00,WUHU216HW,2013-02-02 04:54:00,
2013-02-01 22:59:00,5.0,0.7,30.01,SSW,203,6.0,6.9,82,0.00,,,0.00,WUHU216HW,2013-02-02 04:59:00,
2013-02-01 23:00:00,5.0,0.7,30.01,SW,225,5.6,6.9,82,0.00,,,0.00,WUHU216HW,2013-02-02 05:00:00,
2013-02-01 23:01:00,5.0,0.7,30.01,SSW,203,5.4,6.9,82,0.00,,,0.00,WUHU216HW,2013-02-02 05:01:00,
2013-02-01 23:06:00,5.2,0.9,30.01,South,180,5.4,6.9,82,0.00,,,0.00,WUHU216HW,2013-02-02 05:06:00,
2013-02-01 23:11:00,5.2,1.1,30.00,SSW,203,6.0,6.9,83,0.00,,,0.00,WUHU216HW,2013-02-02 05:11:00,
2013-02-01 23:16:00,5.4,1.1,30.00,SSW,203,5.6,6.9,82,0.00,,,0.00,WUHU216HW,2013-02-02 05:16:00,
2013-02-01 23:21:00,5.4,1.1,30.00,South,180,4.7,7.4,82,0.00,,,0.00,WUHU216HW,2013-02-02 05:21:00,
2013-02-01 23:26:00,5.4,1.3,30.00,SSW,203,6.0,7.4,83,0.00,,,0.00,WUHU216HW,2013-02-02 05:26:00,
2013-02-01 23:31:00,5.4,1.1,29.99,SSW,203,5.4,6.7,82,0.00,,,0.00,WUHU216HW,2013-02-02 05:31:00,
2013-02-01 23:36:00,5.4,1.3,29.99,SW,225,4.7,6.9,83,0.00,,,0.00,WUHU216HW,2013-02-02 05:36:00,
2013-02-01 23:41:00,5.4,1.3,29.99,SSW,203,4.5,6.9,83,0.00,,,0.00,WUHU216HW,2013-02-02 05:41:00,
2013-02-01 23:46:00,5.6,1.4,29.99,SSW,203,3.8,6.5,83,0.00,,,0.00,WUHU216HW,2013-02-02 05:46:00,
2013-02-01 23:51:00,5.6,1.4,29.98,SSW,203,4.3,5.4,83,0.00,,,0.00,WUHU216HW,2013-02-02 05:51:00,
2013-02-01 23:56:00,5.8,1.6,29.98,SSW,203,2.9,4.7,83,0.00,,,0.00,WUHU216HW,2013-02-02 05:56:00,